createdAt,value
2018-10-06T00:00:06.054Z,20.62
2018-10-06T00:02:34.477Z,23.38
2018-10-06T00:05:02.060Z,22.60
2018-10-06T00:07:29.621Z,22.93
2018-10-06T00:09:57.612Z,20.90
2018-10-06T00:12:25.165Z,27.10
2018-10-06T00:14:52.685Z,24.75
2018-10-06T00:17:20.245Z,21.93
2018-10-06T00:19:47.781Z,17.75
2018-10-06T00:22:15.369Z,24.85
2018-10-06T00:24:42.891Z,22.27
2018-10-06T00:27:10.405Z,24.45
2018-10-06T00:29:38.030Z,18.25
2018-10-06T00:32:05.567Z,27.82
2018-10-06T00:34:33.130Z,25.30
2018-10-06T00:37:00.635Z,25.65
2018-10-06T00:39:28.183Z,20.92
2018-10-06T00:41:55.722Z,21.05
2018-10-06T00:44:23.291Z,22.77
2018-10-06T00:46:50.892Z,24.47
2018-10-06T00:49:18.515Z,19.10
2018-10-06T00:51:46.063Z,22.58
2018-10-06T00:54:13.626Z,20.00
2018-10-06T00:56:41.286Z,20.92
2018-10-06T00:59:08.826Z,20.75
2018-10-06T01:01:36.365Z,26.25
2018-10-06T01:04:03.921Z,23.73
2018-10-06T01:06:31.502Z,22.32
2018-10-06T01:08:59.072Z,28.27
2018-10-06T01:11:26.608Z,21.07
2018-10-06T01:13:54.405Z,20.35
2018-10-06T01:16:21.945Z,18.77
2018-10-06T01:18:49.500Z,19.45
2018-10-06T01:21:17.046Z,16.73
2018-10-06T01:23:44.574Z,20.00
2018-10-06T01:26:12.173Z,18.95
2018-10-06T01:28:39.679Z,22.32
2018-10-06T01:31:07.245Z,19.15
2018-10-06T01:33:34.771Z,22.07
2018-10-06T01:36:02.332Z,20.20
2018-10-06T01:38:29.850Z,18.27
2018-10-06T01:40:57.406Z,21.23
2018-10-06T01:43:24.930Z,20.62
2018-10-06T01:45:52.473Z,22.48
2018-10-06T01:48:19.969Z,16.97
2018-10-06T01:50:47.698Z,19.55
2018-10-06T01:53:15.291Z,23.02
2018-10-06T01:55:42.841Z,20.68
2018-10-06T01:58:10.382Z,23.00
2018-10-06T02:00:37.977Z,21.35
2018-10-06T02:03:05.607Z,17.15
2018-10-06T02:05:33.166Z,19.48
2018-10-06T02:08:00.720Z,18.87
2018-10-06T02:10:28.292Z,22.15
2018-10-06T02:12:55.843Z,13.68
2018-10-06T02:15:23.459Z,25.30
2018-10-06T02:17:51.026Z,19.60
2018-10-06T02:20:18.596Z,14.60
2018-10-06T02:22:46.116Z,17.45
2018-10-06T02:25:13.730Z,16.12
2018-10-06T02:27:41.268Z,14.50
2018-10-06T02:30:08.869Z,19.02
2018-10-06T02:32:36.375Z,18.37
2018-10-06T02:35:03.937Z,15.65
2018-10-06T02:37:31.509Z,15.00
2018-10-06T02:39:59.093Z,15.15
2018-10-06T02:42:26.697Z,16.80
2018-10-06T02:44:54.217Z,20.27
2018-10-06T02:47:21.782Z,17.90
2018-10-06T02:49:49.297Z,15.68
2018-10-06T02:52:16.837Z,16.42
2018-10-06T02:54:44.412Z,17.10
2018-10-06T02:57:11.927Z,16.48
2018-10-06T02:59:39.452Z,13.78
2018-10-06T03:02:07.206Z,19.25
2018-10-06T03:04:34.730Z,14.95
2018-10-06T03:07:02.230Z,16.35
2018-10-06T03:09:29.790Z,18.12
2018-10-06T03:11:57.300Z,16.35
2018-10-06T03:14:24.835Z,19.40
2018-10-06T03:16:52.370Z,13.78
2018-10-06T03:19:19.878Z,16.37
2018-10-06T03:21:47.411Z,15.65
2018-10-06T03:24:14.994Z,16.85
2018-10-06T03:26:42.577Z,11.73
2018-10-06T03:29:10.124Z,15.15
2018-10-06T03:31:37.641Z,14.23
2018-10-06T03:34:05.194Z,16.27
2018-10-06T03:36:32.734Z,14.95
2018-10-06T03:39:00.305Z,12.98
2018-10-06T03:41:27.836Z,14.20
2018-10-06T03:43:55.379Z,18.10
2018-10-06T03:46:22.921Z,9.95
2018-10-06T03:48:50.481Z,16.57
2018-10-06T03:51:18.030Z,19.52
2018-10-06T03:53:45.609Z,18.77
2018-10-06T03:56:13.163Z,14.20
2018-10-06T03:58:40.767Z,12.60
2018-10-06T04:01:08.355Z,16.80
2018-10-06T04:03:35.909Z,15.33
2018-10-06T04:06:03.608Z,10.93
2018-10-06T04:08:31.121Z,13.60
2018-10-06T04:10:58.683Z,12.63
2018-10-06T04:13:26.290Z,12.43
2018-10-06T04:15:53.805Z,9.70
2018-10-06T04:18:21.318Z,9.40
2018-10-06T04:20:48.837Z,11.23
2018-10-06T04:23:16.368Z,9.50
2018-10-06T04:25:43.955Z,11.10
2018-10-06T04:28:11.495Z,9.10
2018-10-06T04:30:39.097Z,8.20
2018-10-06T04:33:06.614Z,8.63
2018-10-06T04:35:34.179Z,12.63
2018-10-06T04:38:01.761Z,10.03
2018-10-06T04:40:29.287Z,8.50
2018-10-06T04:42:56.814Z,10.00
2018-10-06T04:45:24.340Z,6.97
2018-10-06T04:47:51.861Z,7.60
2018-10-06T04:50:19.425Z,9.17
2018-10-06T04:52:46.975Z,13.90
2018-10-06T04:55:14.548Z,6.80
2018-10-06T04:57:42.115Z,6.67
2018-10-06T05:00:09.624Z,6.90
2018-10-06T05:02:37.206Z,11.93
2018-10-06T05:05:04.749Z,6.27
2018-10-06T05:07:32.315Z,10.47
2018-10-06T05:09:59.844Z,7.47
2018-10-06T05:12:27.393Z,8.63
2018-10-06T05:14:54.944Z,13.53
2018-10-06T05:17:22.511Z,8.50
2018-10-06T05:19:50.033Z,11.07
2018-10-06T05:22:17.568Z,10.67
2018-10-06T05:24:45.093Z,8.13
2018-10-06T05:27:12.628Z,9.20
2018-10-06T05:29:40.161Z,7.37
2018-10-06T05:32:07.688Z,13.33
2018-10-06T05:34:35.189Z,9.70
2018-10-06T05:37:02.735Z,6.83
2018-10-06T05:39:30.235Z,8.10
2018-10-06T05:41:57.772Z,9.13
2018-10-06T05:44:25.302Z,11.50
2018-10-06T05:46:52.852Z,7.17
2018-10-06T05:49:26.546Z,6.90
2018-10-06T05:52:00.299Z,7.20
2018-10-06T05:54:34.038Z,10.50
2018-10-06T05:57:08.010Z,7.23
2018-10-06T05:59:35.574Z,16.43
2018-10-06T06:02:03.190Z,12.60
2018-10-06T06:04:30.788Z,15.50
2018-10-06T06:06:58.288Z,14.50
2018-10-06T06:09:25.842Z,14.23
2018-10-06T06:11:53.387Z,10.77
2018-10-06T06:14:20.929Z,8.73
2018-10-06T06:16:48.455Z,12.00
2018-10-06T06:19:16.030Z,10.33
2018-10-06T06:21:43.664Z,13.67
2018-10-06T06:24:11.159Z,9.90
2018-10-06T06:26:38.703Z,14.83
2018-10-06T06:29:06.263Z,9.43
2018-10-06T06:31:33.792Z,8.00
2018-10-06T06:34:01.367Z,12.13
2018-10-06T06:36:28.883Z,7.97
2018-10-06T06:38:56.451Z,10.20
2018-10-06T06:41:24.003Z,8.40
2018-10-06T06:43:51.539Z,13.70
2018-10-06T06:46:19.095Z,9.63
2018-10-06T06:48:46.753Z,8.63
2018-10-06T06:51:14.421Z,11.73
2018-10-06T06:53:41.951Z,14.33
2018-10-06T06:56:09.483Z,12.83
2018-10-06T06:58:37.118Z,23.30
2018-10-06T07:01:04.750Z,13.87
2018-10-06T07:03:32.335Z,13.20
2018-10-06T07:05:59.911Z,12.17
2018-10-06T07:08:27.435Z,10.20
2018-10-06T07:10:54.968Z,10.20
2018-10-06T07:13:22.515Z,8.00
2018-10-06T07:15:50.096Z,11.00
2018-10-06T07:18:17.628Z,10.93
2018-10-06T07:20:45.238Z,11.97
2018-10-06T07:23:12.801Z,16.10
2018-10-06T07:25:40.449Z,14.23
2018-10-06T07:28:07.892Z,13.73
2018-10-06T07:30:35.447Z,16.70
2018-10-06T07:33:02.990Z,11.17
2018-10-06T07:35:30.581Z,9.67
2018-10-06T07:37:58.157Z,12.37
2018-10-06T07:40:25.706Z,14.83
2018-10-06T07:42:53.269Z,13.27
2018-10-06T07:45:20.849Z,9.50
2018-10-06T07:47:48.455Z,9.47
2018-10-06T07:50:16.029Z,8.27
2018-10-06T07:52:43.624Z,9.60
2018-10-06T07:55:11.199Z,18.27
2018-10-06T07:57:38.876Z,11.27
2018-10-06T08:00:06.555Z,10.37
2018-10-06T08:02:34.108Z,12.13
2018-10-06T08:05:01.745Z,161.10
2018-10-06T08:07:29.278Z,151.37
2018-10-06T08:09:56.806Z,15.90
2018-10-06T08:12:24.352Z,16.37
2018-10-06T08:14:51.872Z,13.50
2018-10-06T08:17:19.437Z,14.43
2018-10-06T08:19:47.012Z,16.80
2018-10-06T08:22:14.585Z,11.27
2018-10-06T08:24:42.238Z,9.43
2018-10-06T08:27:09.789Z,8.50
2018-10-06T08:29:37.386Z,7.47
2018-10-06T08:32:04.911Z,8.47
2018-10-06T08:34:32.478Z,12.33
2018-10-06T08:37:00.036Z,12.90
2018-10-06T08:39:27.618Z,12.63
2018-10-06T08:41:55.223Z,17.50
2018-10-06T08:44:22.778Z,11.27
2018-10-06T08:46:50.334Z,11.63
2018-10-06T08:49:17.865Z,14.23
2018-10-06T08:51:45.435Z,12.90
2018-10-06T08:54:12.991Z,15.20
2018-10-06T08:56:40.543Z,8.83
2018-10-06T08:59:08.088Z,9.40
2018-10-06T09:01:35.702Z,8.53
2018-10-06T09:04:03.287Z,10.77
2018-10-06T09:06:30.825Z,12.77
2018-10-06T09:08:58.385Z,14.17
2018-10-06T09:11:26.009Z,14.47
2018-10-06T09:13:53.546Z,15.20
2018-10-06T09:16:21.102Z,9.00
2018-10-06T09:18:48.642Z,18.27
2018-10-06T09:21:16.237Z,9.10
2018-10-06T09:23:43.831Z,10.10
2018-10-06T09:26:11.421Z,8.87
2018-10-06T09:28:39.003Z,9.53
2018-10-06T09:31:06.591Z,25.53
2018-10-06T09:33:34.120Z,9.60
2018-10-06T09:36:01.703Z,16.43
2018-10-06T09:38:29.229Z,9.80
2018-10-06T09:40:56.793Z,7.50
2018-10-06T09:43:24.292Z,10.83
2018-10-06T09:45:52.192Z,13.53
2018-10-06T09:48:19.781Z,10.00
2018-10-06T09:50:47.322Z,8.87
2018-10-06T09:53:14.872Z,9.37
2018-10-06T09:55:42.419Z,15.17
2018-10-06T09:58:10.019Z,7.07
2018-10-06T10:00:43.123Z,11.47
2018-10-06T10:03:16.105Z,10.20
2018-10-06T10:05:47.384Z,12.73
2018-10-06T10:08:14.955Z,11.87
2018-10-06T10:10:42.456Z,7.10
2018-10-06T10:13:10.024Z,5.70
2018-10-06T10:15:37.567Z,5.57
2018-10-06T10:18:05.328Z,6.60
2018-10-06T10:20:32.818Z,5.73
2018-10-06T10:23:00.701Z,7.07
2018-10-06T10:25:28.300Z,4.73
2018-10-06T10:27:55.847Z,5.47
2018-10-06T10:30:23.410Z,8.67
2018-10-06T10:32:50.963Z,4.60
2018-10-06T10:35:18.570Z,8.27
2018-10-06T10:37:46.193Z,5.80
2018-10-06T10:40:13.748Z,4.30
2018-10-06T10:42:41.326Z,6.83
2018-10-06T10:45:08.921Z,4.50
2018-10-06T10:47:36.475Z,3.73
2018-10-06T10:50:04.089Z,5.20
2018-10-06T10:52:31.668Z,6.70
2018-10-06T10:54:59.496Z,5.40
2018-10-06T10:57:27.264Z,6.80
2018-10-06T10:59:54.976Z,5.17
2018-10-06T11:02:22.386Z,6.20
2018-10-06T11:04:49.996Z,3.30
2018-10-06T11:07:17.512Z,3.70
2018-10-06T11:09:45.102Z,5.37
2018-10-06T11:12:12.637Z,3.80
2018-10-06T11:14:40.224Z,6.63
2018-10-06T11:17:07.842Z,6.53
2018-10-06T11:19:35.464Z,6.13
2018-10-06T11:22:03.002Z,3.40
2018-10-06T11:24:30.581Z,4.80
2018-10-06T11:26:58.120Z,4.10
2018-10-06T11:29:25.717Z,8.47
2018-10-06T11:31:53.247Z,3.03
2018-10-06T11:34:20.792Z,2.90
2018-10-06T11:36:48.355Z,2.40
2018-10-06T11:39:15.959Z,7.20
2018-10-06T11:41:43.546Z,5.73
2018-10-06T11:44:11.121Z,8.60
2018-10-06T11:46:38.675Z,5.37
2018-10-06T11:49:06.247Z,3.50
2018-10-06T11:51:33.809Z,3.00
2018-10-06T11:54:01.434Z,2.87
2018-10-06T11:56:29.045Z,3.33
2018-10-06T11:58:56.604Z,5.00
2018-10-06T12:01:24.121Z,7.40
2018-10-06T12:03:51.659Z,5.43
2018-10-06T12:06:19.256Z,4.73
2018-10-06T12:08:46.803Z,7.53
2018-10-06T12:11:14.360Z,9.97
2018-10-06T12:13:41.943Z,4.17
2018-10-06T12:16:09.517Z,3.97
2018-10-06T12:18:37.081Z,7.10
2018-10-06T12:21:04.682Z,5.10
2018-10-06T12:23:32.262Z,2.57
2018-10-06T12:25:59.876Z,3.23
2018-10-06T12:28:27.417Z,5.13
2018-10-06T12:30:55.005Z,2.93
2018-10-06T12:33:22.579Z,11.27
2018-10-06T12:35:50.148Z,4.77
2018-10-06T12:38:17.836Z,4.40
2018-10-06T12:40:45.416Z,4.13
2018-10-06T12:43:13.020Z,3.73
2018-10-06T12:45:40.525Z,5.63
2018-10-06T12:48:08.096Z,3.70
2018-10-06T12:50:35.673Z,4.20
2018-10-06T12:53:03.269Z,3.33
2018-10-06T12:55:30.852Z,5.27
2018-10-06T12:57:58.406Z,3.90
2018-10-06T13:00:25.977Z,3.63
2018-10-06T13:02:53.548Z,5.50
2018-10-06T13:05:21.073Z,3.10
2018-10-06T13:07:48.731Z,2.73
2018-10-06T13:10:16.310Z,7.43
2018-10-06T13:12:43.841Z,3.57
2018-10-06T13:15:11.380Z,8.93
2018-10-06T13:17:38.974Z,5.37
2018-10-06T13:20:06.617Z,4.77
2018-10-06T13:22:34.179Z,3.73
2018-10-06T13:25:01.774Z,2.40
2018-10-06T13:27:29.330Z,2.40
2018-10-06T13:29:56.879Z,6.60
2018-10-06T13:32:24.432Z,4.90
2018-10-06T13:34:52.021Z,5.73
2018-10-06T13:37:19.550Z,2.97
2018-10-06T13:39:47.136Z,6.07
2018-10-06T13:42:14.764Z,8.50
2018-10-06T13:44:42.507Z,7.10
2018-10-06T13:47:10.093Z,6.13
2018-10-06T13:49:37.647Z,5.57
2018-10-06T13:52:05.295Z,3.33
2018-10-06T13:54:32.860Z,4.63
2018-10-06T13:57:00.499Z,3.37
2018-10-06T13:59:28.069Z,4.03
2018-10-06T14:01:55.638Z,5.63
2018-10-06T14:04:23.205Z,3.97
2018-10-06T14:06:50.766Z,4.10
2018-10-06T14:09:18.341Z,5.23
2018-10-06T14:11:45.919Z,2.70
2018-10-06T14:14:13.442Z,4.77
2018-10-06T14:16:41.002Z,4.20
2018-10-06T14:19:08.623Z,3.20
2018-10-06T14:21:36.190Z,2.40
2018-10-06T14:24:03.753Z,8.90
2018-10-06T14:26:31.387Z,1.87
2018-10-06T14:28:58.887Z,6.80
2018-10-06T14:31:26.447Z,3.77
2018-10-06T14:33:54.153Z,4.83
2018-10-06T14:36:21.736Z,2.07
2018-10-06T14:38:49.297Z,3.00
2018-10-06T14:41:17.444Z,3.33
2018-10-06T14:43:45.039Z,5.13
2018-10-06T14:46:12.603Z,2.27
2018-10-06T14:48:40.155Z,4.07
2018-10-06T14:51:07.694Z,5.03
2018-10-06T14:53:35.257Z,3.90
2018-10-06T14:56:02.830Z,2.73
2018-10-06T14:58:30.460Z,3.40
2018-10-06T15:00:58.059Z,5.00
2018-10-06T15:03:25.608Z,6.63
2018-10-06T15:05:53.249Z,3.40
2018-10-06T15:08:20.762Z,5.10
2018-10-06T15:10:48.337Z,5.80
2018-10-06T15:13:15.920Z,2.70
2018-10-06T15:15:43.466Z,2.90
2018-10-06T15:18:11.006Z,5.23
2018-10-06T15:20:39.089Z,2.67
2018-10-06T15:23:07.036Z,2.47
2018-10-06T15:25:34.772Z,7.23
2018-10-06T15:28:02.404Z,3.40
2018-10-06T15:30:29.924Z,2.83
2018-10-06T15:32:57.473Z,2.80
2018-10-06T15:35:25.025Z,3.93
2018-10-06T15:37:52.633Z,4.80
2018-10-06T15:40:20.207Z,2.90
2018-10-06T15:42:47.803Z,2.60
2018-10-06T15:45:15.335Z,3.70
2018-10-06T15:47:43.001Z,2.70
2018-10-06T15:50:10.589Z,8.53
2018-10-06T15:52:38.131Z,3.37
2018-10-06T15:55:05.791Z,4.60
2018-10-06T15:57:33.388Z,3.70
2018-10-06T16:00:00.962Z,2.00
2018-10-06T16:02:28.543Z,2.17
2018-10-06T16:04:56.124Z,3.77
2018-10-06T16:07:23.690Z,2.37
2018-10-06T16:09:51.234Z,3.33
2018-10-06T16:12:18.877Z,2.80
2018-10-06T16:14:46.886Z,3.27
2018-10-06T16:17:14.461Z,6.20
2018-10-06T16:19:42.477Z,2.87
2018-10-06T16:22:10.159Z,3.60
2018-10-06T16:24:37.693Z,3.57
2018-10-06T16:27:05.338Z,9.30
2018-10-06T16:29:32.947Z,3.57
2018-10-06T16:32:00.556Z,3.57
2018-10-06T16:34:28.137Z,2.60
2018-10-06T16:36:55.734Z,3.67
2018-10-06T16:39:23.285Z,5.10
2018-10-06T16:41:50.862Z,8.30
2018-10-06T16:44:18.420Z,4.37
2018-10-06T16:46:46.011Z,3.70
2018-10-06T16:49:13.575Z,2.90
2018-10-06T16:51:41.148Z,5.17
2018-10-06T16:54:08.693Z,7.20
2018-10-06T16:56:36.313Z,3.87
2018-10-06T16:59:03.927Z,5.67
2018-10-06T17:01:31.503Z,5.73
2018-10-06T17:03:59.136Z,7.83
2018-10-06T17:06:26.756Z,3.73
2018-10-06T17:08:54.305Z,4.93
2018-10-06T17:11:21.866Z,3.00
2018-10-06T17:13:49.410Z,8.50
2018-10-06T17:16:16.966Z,4.53
2018-10-06T17:18:44.508Z,3.63
2018-10-06T17:21:12.011Z,4.17
2018-10-06T17:23:39.590Z,3.97
2018-10-06T17:26:07.163Z,9.93
2018-10-06T17:28:34.700Z,6.87
2018-10-06T17:31:02.375Z,5.93
2018-10-06T17:33:29.977Z,6.70
2018-10-06T17:35:57.615Z,6.43
2018-10-06T17:38:25.931Z,5.07
2018-10-06T17:40:53.570Z,13.63
2018-10-06T17:43:21.264Z,3.33
2018-10-06T17:45:48.901Z,4.37
2018-10-06T17:48:16.571Z,4.27
2018-10-06T17:50:44.370Z,8.00
2018-10-06T17:53:11.862Z,8.10
2018-10-06T17:55:39.496Z,4.30
2018-10-06T17:58:07.316Z,14.73
2018-10-06T18:00:34.792Z,7.33
2018-10-06T18:03:02.548Z,15.53
2018-10-06T18:05:30.292Z,23.87
2018-10-06T18:07:58.031Z,12.20
2018-10-06T18:10:25.649Z,12.73
2018-10-06T18:12:53.330Z,8.23
2018-10-06T18:15:21.970Z,8.90
2018-10-06T18:17:49.642Z,8.50
2018-10-06T18:20:18.310Z,12.80
2018-10-06T18:22:45.939Z,11.80
2018-10-06T18:25:13.591Z,6.33
2018-10-06T18:27:41.284Z,7.23
2018-10-06T18:30:08.891Z,6.10
2018-10-06T18:32:36.551Z,7.57
2018-10-06T18:35:04.257Z,11.20
2018-10-06T18:37:31.952Z,7.77
2018-10-06T18:39:59.699Z,10.13
2018-10-06T18:42:28.177Z,6.60
2018-10-06T18:44:55.831Z,10.33
2018-10-06T18:47:23.471Z,6.80
2018-10-06T18:49:51.092Z,8.07
2018-10-06T18:52:18.844Z,11.30
2018-10-06T18:54:46.729Z,11.90
2018-10-06T18:57:14.366Z,12.23
2018-10-06T18:59:42.277Z,15.03
2018-10-06T19:02:10.277Z,8.07
2018-10-06T19:04:38.229Z,11.50
2018-10-06T19:07:06.233Z,14.67
2018-10-06T19:09:34.261Z,14.40
2018-10-06T19:12:02.325Z,9.37
2018-10-06T19:14:30.405Z,20.43
2018-10-06T19:16:58.426Z,23.73
2018-10-06T19:19:26.464Z,13.40
2018-10-06T19:21:54.735Z,9.30
2018-10-06T19:24:22.719Z,23.20
2018-10-06T19:26:50.992Z,12.93
2018-10-06T19:29:19.574Z,13.60
2018-10-06T19:31:47.856Z,16.07
2018-10-06T19:34:15.881Z,18.83
2018-10-06T19:36:43.874Z,13.10
2018-10-06T19:39:11.868Z,16.03
2018-10-06T19:41:40.732Z,16.10
2018-10-06T19:44:08.808Z,15.50
2018-10-06T19:46:36.987Z,16.60
2018-10-06T19:49:05.099Z,20.93
2018-10-06T19:51:33.367Z,16.30
2018-10-06T19:54:01.401Z,15.03
2018-10-06T19:56:29.494Z,18.53
2018-10-06T19:58:57.606Z,20.13
2018-10-06T20:01:25.644Z,20.53
2018-10-06T20:03:53.651Z,16.10
2018-10-06T20:06:21.679Z,16.20
2018-10-06T20:08:49.705Z,20.20
2018-10-06T20:11:17.755Z,11.07
2018-10-06T20:13:45.822Z,14.20
2018-10-06T20:16:14.780Z,23.67
2018-10-06T20:18:42.867Z,15.63
2018-10-06T20:21:10.881Z,15.70
2018-10-06T20:23:38.818Z,17.77
2018-10-06T20:26:07.162Z,12.40
2018-10-06T20:28:34.912Z,15.63
2018-10-06T20:31:03.396Z,18.70
2018-10-06T20:33:31.754Z,17.23
2018-10-06T20:35:59.463Z,18.80
2018-10-06T20:38:27.196Z,18.63
2018-10-06T20:40:54.959Z,14.53
2018-10-06T20:43:22.664Z,13.33
2018-10-06T20:45:50.354Z,14.17
2018-10-06T20:48:18.081Z,13.17
2018-10-06T20:50:45.763Z,18.23
2018-10-06T20:53:13.524Z,19.20
2018-10-06T20:55:41.441Z,21.80
2018-10-06T20:58:09.131Z,22.13
2018-10-06T21:00:36.881Z,18.57
2018-10-06T21:03:04.821Z,18.37
2018-10-06T21:05:32.687Z,19.17
2018-10-06T21:08:00.466Z,13.30
2018-10-06T21:10:28.259Z,11.60
2018-10-06T21:12:59.013Z,21.83
2018-10-06T21:15:26.771Z,21.20
2018-10-06T21:17:54.472Z,12.33
2018-10-06T21:20:22.223Z,14.63
2018-10-06T21:22:49.874Z,17.80
2018-10-06T21:25:17.567Z,12.27
2018-10-06T21:27:45.284Z,12.53
2018-10-06T21:30:12.975Z,18.43
2018-10-06T21:32:40.675Z,18.00
2018-10-06T21:35:08.459Z,21.67
2018-10-06T21:37:36.053Z,14.73
2018-10-06T21:40:03.689Z,15.67
2018-10-06T21:42:31.303Z,18.10
2018-10-06T21:44:59.207Z,15.00
2018-10-06T21:47:26.829Z,11.70
2018-10-06T21:49:54.378Z,13.90
2018-10-06T21:52:21.924Z,20.20
2018-10-06T21:54:49.488Z,16.27
2018-10-06T21:57:17.116Z,13.60
2018-10-06T21:59:44.646Z,21.90
2018-10-06T22:02:12.201Z,12.53
2018-10-06T22:04:39.761Z,13.80
2018-10-06T22:07:07.353Z,11.10
2018-10-06T22:09:34.901Z,13.33
2018-10-06T22:12:02.535Z,17.57
2018-10-06T22:14:30.146Z,15.93
2018-10-06T22:16:57.736Z,23.43
2018-10-06T22:19:25.356Z,14.40
2018-10-06T22:21:52.894Z,19.83
2018-10-06T22:26:56.323Z,18.80
2018-10-06T22:29:23.849Z,16.23
2018-10-06T22:31:51.395Z,16.83
2018-10-06T22:34:18.980Z,15.50
2018-10-06T22:36:46.532Z,27.03
2018-10-06T22:39:14.121Z,28.57
2018-10-06T22:41:41.661Z,21.20
2018-10-06T22:44:09.208Z,20.33
2018-10-06T22:46:36.748Z,30.23
2018-10-06T22:49:04.418Z,24.40
2018-10-06T22:51:32.130Z,17.53
2018-10-06T22:53:59.814Z,18.60
2018-10-06T22:56:27.550Z,18.50
2018-10-06T22:58:55.170Z,17.00
2018-10-06T23:01:22.682Z,16.93
2018-10-06T23:03:50.213Z,16.17
2018-10-06T23:06:17.769Z,18.60
2018-10-06T23:08:45.346Z,21.33
2018-10-06T23:11:12.888Z,23.03
2018-10-06T23:13:40.434Z,13.63
2018-10-06T23:16:07.993Z,21.93
2018-10-06T23:18:35.686Z,12.50
2018-10-06T23:21:05.001Z,19.30
2018-10-06T23:23:32.769Z,16.40
2018-10-06T23:26:00.443Z,14.43
2018-10-06T23:28:28.020Z,13.23
2018-10-06T23:30:55.560Z,17.00
2018-10-06T23:33:23.103Z,15.33
2018-10-06T23:35:50.680Z,12.57
2018-10-06T23:38:18.254Z,19.63
2018-10-06T23:40:45.833Z,13.87
2018-10-06T23:43:13.392Z,19.63
2018-10-06T23:45:40.963Z,12.30
2018-10-06T23:48:08.506Z,13.60
2018-10-06T23:50:36.064Z,15.63
2018-10-06T23:53:03.626Z,15.30
2018-10-06T23:55:31.241Z,12.80
2018-10-06T23:57:58.886Z,13.23
